sensor_id;sensor_type;location;lat;lon;timestamp;P1;durP1;ratioP1;P2;durP2;ratioP2
29570;SDS011;16814;52.118;11.436;2023-01-28T00:00:12;6.55;;;1.80;;
29570;SDS011;16814;52.118;11.436;2023-01-28T00:02:39;4.95;;;1.80;;
29570;SDS011;16814;52.118;11.436;2023-01-28T00:05:06;6.50;;;1.60;;
29570;SDS011;16814;52.118;11.436;2023-01-28T00:07:39;8.07;;;1.57;;
29570;SDS011;16814;52.118;11.436;2023-01-28T00:10:04;6.40;;;1.60;;
29570;SDS011;16814;52.118;11.436;2023-01-28T00:12:32;6.77;;;1.70;;
29570;SDS011;16814;52.118;11.436;2023-01-28T00:15:02;9.27;;;1.88;;
29570;SDS011;16814;52.118;11.436;2023-01-28T00:17:31;8.88;;;2.25;;
29570;SDS011;16814;52.118;11.436;2023-01-28T00:19:57;9.75;;;1.92;;
29570;SDS011;16814;52.118;11.436;2023-01-28T00:22:23;5.88;;;1.83;;
29570;SDS011;16814;52.118;11.436;2023-01-28T00:24:50;4.55;;;1.92;;
29570;SDS011;16814;52.118;11.436;2023-01-28T00:27:17;5.17;;;1.60;;
29570;SDS011;16814;52.118;11.436;2023-01-28T00:29:43;8.63;;;1.80;;
29570;SDS011;16814;52.118;11.436;2023-01-28T00:32:11;4.07;;;1.40;;
29570;SDS011;16814;52.118;11.436;2023-01-28T00:34:36;7.20;;;1.67;;
29570;SDS011;16814;52.118;11.436;2023-01-28T00:37:12;9.05;;;1.60;;
29570;SDS011;16814;52.118;11.436;2023-01-28T00:39:42;12.35;;;2.30;;
29570;SDS011;16814;52.118;11.436;2023-01-28T00:42:09;5.60;;;1.52;;
29570;SDS011;16814;52.118;11.436;2023-01-28T00:44:34;4.93;;;1.50;;
29570;SDS011;16814;52.118;11.436;2023-01-28T00:47:04;5.40;;;1.90;;
29570;SDS011;16814;52.118;11.436;2023-01-28T00:49:29;4.97;;;1.63;;
29570;SDS011;16814;52.118;11.436;2023-01-28T00:52:01;9.43;;;1.75;;
29570;SDS011;16814;52.118;11.436;2023-01-28T00:54:27;9.10;;;2.60;;
29570;SDS011;16814;52.118;11.436;2023-01-28T00:56:53;4.18;;;1.70;;
29570;SDS011;16814;52.118;11.436;2023-01-28T00:59:20;5.88;;;1.52;;
29570;SDS011;16814;52.118;11.436;2023-01-28T01:01:46;7.27;;;1.97;;
29570;SDS011;16814;52.118;11.436;2023-01-28T01:04:14;7.25;;;1.40;;
29570;SDS011;16814;52.118;11.436;2023-01-28T01:06:52;8.13;;;1.90;;
29570;SDS011;16814;52.118;11.436;2023-01-28T01:09:17;8.20;;;1.92;;
29570;SDS011;16814;52.118;11.436;2023-01-28T01:11:44;6.30;;;1.58;;
29570;SDS011;16814;52.118;11.436;2023-01-28T01:14:10;14.40;;;2.00;;
29570;SDS011;16814;52.118;11.436;2023-01-28T01:16:37;6.78;;;1.90;;
29570;SDS011;16814;52.118;11.436;2023-01-28T01:19:04;8.15;;;1.60;;
29570;SDS011;16814;52.118;11.436;2023-01-28T01:21:30;5.53;;;1.83;;
29570;SDS011;16814;52.118;11.436;2023-01-28T01:23:59;5.85;;;1.80;;
29570;SDS011;16814;52.118;11.436;2023-01-28T01:26:25;10.23;;;2.20;;
29570;SDS011;16814;52.118;11.436;2023-01-28T01:28:52;6.68;;;2.13;;
29570;SDS011;16814;52.118;11.436;2023-01-28T01:31:19;6.72;;;2.10;;
29570;SDS011;16814;52.118;11.436;2023-01-28T01:33:49;6.00;;;2.10;;
29570;SDS011;16814;52.118;11.436;2023-01-28T01:36:16;8.57;;;2.38;;
29570;SDS011;16814;52.118;11.436;2023-01-28T01:38:45;7.03;;;2.08;;
29570;SDS011;16814;52.118;11.436;2023-01-28T01:47:15;6.50;;;2.03;;
29570;SDS011;16814;52.118;11.436;2023-01-28T01:49:42;7.50;;;2.03;;
29570;SDS011;16814;52.118;11.436;2023-01-28T01:52:10;9.88;;;2.63;;
29570;SDS011;16814;52.118;11.436;2023-01-28T01:54:42;4.15;;;1.83;;
29570;SDS011;16814;52.118;11.436;2023-01-28T01:57:13;6.45;;;1.65;;
29570;SDS011;16814;52.118;11.436;2023-01-28T01:59:43;4.85;;;1.70;;
29570;SDS011;16814;52.118;11.436;2023-01-28T02:02:10;4.53;;;2.05;;
29570;SDS011;16814;52.118;11.436;2023-01-28T02:04:41;6.13;;;1.88;;
29570;SDS011;16814;52.118;11.436;2023-01-28T02:07:15;5.25;;;1.80;;
29570;SDS011;16814;52.118;11.436;2023-01-28T02:09:44;5.65;;;1.70;;
29570;SDS011;16814;52.118;11.436;2023-01-28T02:14:47;6.35;;;1.75;;
29570;SDS011;16814;52.118;11.436;2023-01-28T02:17:26;10.80;;;2.70;;
29570;SDS011;16814;52.118;11.436;2023-01-28T02:19:57;4.65;;;1.92;;
29570;SDS011;16814;52.118;11.436;2023-01-28T02:28:24;7.18;;;2.63;;
29570;SDS011;16814;52.118;11.436;2023-01-28T02:34:39;6.25;;;2.22;;
29570;SDS011;16814;52.118;11.436;2023-01-28T02:40:00;7.38;;;2.53;;
29570;SDS011;16814;52.118;11.436;2023-01-28T02:42:38;8.10;;;3.17;;
29570;SDS011;16814;52.118;11.436;2023-01-28T02:45:38;7.45;;;2.60;;
29570;SDS011;16814;52.118;11.436;2023-01-28T02:48:21;7.65;;;2.90;;
29570;SDS011;16814;52.118;11.436;2023-01-28T02:50:56;7.05;;;2.70;;
29570;SDS011;16814;52.118;11.436;2023-01-28T02:56:40;5.68;;;2.75;;
29570;SDS011;16814;52.118;11.436;2023-01-28T02:59:56;6.22;;;2.80;;
29570;SDS011;16814;52.118;11.436;2023-01-28T03:05:42;9.90;;;3.53;;
29570;SDS011;16814;52.118;11.436;2023-01-28T03:08:37;12.25;;;3.95;;
29570;SDS011;16814;52.118;11.436;2023-01-28T03:11:31;9.18;;;3.47;;
29570;SDS011;16814;52.118;11.436;2023-01-28T03:14:24;9.15;;;3.35;;
29570;SDS011;16814;52.118;11.436;2023-01-28T03:17:15;9.05;;;3.67;;
29570;SDS011;16814;52.118;11.436;2023-01-28T03:20:09;10.65;;;3.70;;
29570;SDS011;16814;52.118;11.436;2023-01-28T03:23:00;10.20;;;3.70;;
29570;SDS011;16814;52.118;11.436;2023-01-28T03:25:57;14.00;;;4.43;;
29570;SDS011;16814;52.118;11.436;2023-01-28T03:29:00;10.52;;;3.80;;
29570;SDS011;16814;52.118;11.436;2023-01-28T03:31:55;9.40;;;3.97;;
29570;SDS011;16814;52.118;11.436;2023-01-28T03:34:46;11.50;;;4.05;;
29570;SDS011;16814;52.118;11.436;2023-01-28T03:37:36;7.50;;;3.75;;
29570;SDS011;16814;52.118;11.436;2023-01-28T03:40:10;10.10;;;4.38;;
29570;SDS011;16814;52.118;11.436;2023-01-28T03:42:36;8.80;;;3.92;;
29570;SDS011;16814;52.118;11.436;2023-01-28T03:45:03;7.87;;;4.07;;
29570;SDS011;16814;52.118;11.436;2023-01-28T03:47:32;7.43;;;4.07;;
29570;SDS011;16814;52.118;11.436;2023-01-28T03:49:59;8.53;;;3.90;;
29570;SDS011;16814;52.118;11.436;2023-01-28T03:52:31;8.15;;;3.78;;
29570;SDS011;16814;52.118;11.436;2023-01-28T03:54:58;9.15;;;4.03;;
29570;SDS011;16814;52.118;11.436;2023-01-28T03:57:26;8.48;;;4.13;;
29570;SDS011;16814;52.118;11.436;2023-01-28T03:59:56;9.55;;;4.03;;
29570;SDS011;16814;52.118;11.436;2023-01-28T04:02:22;11.73;;;4.20;;
29570;SDS011;16814;52.118;11.436;2023-01-28T04:04:49;9.47;;;4.30;;
29570;SDS011;16814;52.118;11.436;2023-01-28T04:07:15;11.13;;;4.40;;
29570;SDS011;16814;52.118;11.436;2023-01-28T04:09:43;9.95;;;4.10;;
29570;SDS011;16814;52.118;11.436;2023-01-28T04:12:10;10.20;;;4.40;;
29570;SDS011;16814;52.118;11.436;2023-01-28T04:14:37;13.03;;;4.93;;
29570;SDS011;16814;52.118;11.436;2023-01-28T04:17:06;9.15;;;4.25;;
29570;SDS011;16814;52.118;11.436;2023-01-28T04:19:35;10.77;;;4.43;;
29570;SDS011;16814;52.118;11.436;2023-01-28T04:22:03;11.18;;;4.00;;
29570;SDS011;16814;52.118;11.436;2023-01-28T04:24:32;10.68;;;4.60;;
29570;SDS011;16814;52.118;11.436;2023-01-28T04:27:00;10.23;;;4.18;;
29570;SDS011;16814;52.118;11.436;2023-01-28T04:29:27;10.88;;;4.30;;
29570;SDS011;16814;52.118;11.436;2023-01-28T04:31:55;11.18;;;4.55;;
29570;SDS011;16814;52.118;11.436;2023-01-28T04:34:21;8.77;;;4.45;;
29570;SDS011;16814;52.118;11.436;2023-01-28T04:36:48;10.53;;;4.50;;
29570;SDS011;16814;52.118;11.436;2023-01-28T04:39:14;7.80;;;4.28;;
29570;SDS011;16814;52.118;11.436;2023-01-28T04:41:41;7.60;;;4.03;;
29570;SDS011;16814;52.118;11.436;2023-01-28T04:44:09;9.85;;;4.10;;
29570;SDS011;16814;52.118;11.436;2023-01-28T04:46:36;7.75;;;3.92;;
29570;SDS011;16814;52.118;11.436;2023-01-28T04:49:02;7.97;;;3.45;;
29570;SDS011;16814;52.118;11.436;2023-01-28T04:51:34;8.23;;;3.27;;
29570;SDS011;16814;52.118;11.436;2023-01-28T04:54:01;9.68;;;3.88;;
29570;SDS011;16814;52.118;11.436;2023-01-28T04:56:26;8.17;;;3.63;;
29570;SDS011;16814;52.118;11.436;2023-01-28T04:58:56;8.18;;;3.40;;
29570;SDS011;16814;52.118;11.436;2023-01-28T05:01:23;9.07;;;3.35;;
29570;SDS011;16814;52.118;11.436;2023-01-28T05:03:50;8.57;;;3.60;;
29570;SDS011;16814;52.118;11.436;2023-01-28T05:06:15;7.90;;;3.58;;
29570;SDS011;16814;52.118;11.436;2023-01-28T05:08:42;8.03;;;3.00;;
29570;SDS011;16814;52.118;11.436;2023-01-28T05:11:11;8.07;;;3.08;;
29570;SDS011;16814;52.118;11.436;2023-01-28T05:13:40;9.80;;;4.18;;
29570;SDS011;16814;52.118;11.436;2023-01-28T05:16:07;5.43;;;2.92;;
29570;SDS011;16814;52.118;11.436;2023-01-28T05:18:34;5.95;;;2.72;;
29570;SDS011;16814;52.118;11.436;2023-01-28T05:21:02;7.20;;;2.95;;
29570;SDS011;16814;52.118;11.436;2023-01-28T05:23:30;7.82;;;2.97;;
29570;SDS011;16814;52.118;11.436;2023-01-28T05:25:57;9.00;;;3.58;;
29570;SDS011;16814;52.118;11.436;2023-01-28T05:28:23;8.35;;;3.65;;
29570;SDS011;16814;52.118;11.436;2023-01-28T05:30:51;5.90;;;3.00;;
29570;SDS011;16814;52.118;11.436;2023-01-28T05:33:16;8.40;;;2.97;;
29570;SDS011;16814;52.118;11.436;2023-01-28T05:35:43;8.20;;;3.00;;
29570;SDS011;16814;52.118;11.436;2023-01-28T05:38:08;7.57;;;2.60;;
29570;SDS011;16814;52.118;11.436;2023-01-28T05:40:34;8.93;;;2.90;;
29570;SDS011;16814;52.118;11.436;2023-01-28T05:43:02;7.13;;;2.80;;
29570;SDS011;16814;52.118;11.436;2023-01-28T05:45:28;5.57;;;2.10;;
29570;SDS011;16814;52.118;11.436;2023-01-28T05:47:56;7.78;;;2.78;;
29570;SDS011;16814;52.118;11.436;2023-01-28T05:50:23;7.68;;;2.72;;
29570;SDS011;16814;52.118;11.436;2023-01-28T05:52:51;7.20;;;2.47;;
29570;SDS011;16814;52.118;11.436;2023-01-28T05:55:18;4.78;;;2.22;;
29570;SDS011;16814;52.118;11.436;2023-01-28T05:57:44;5.57;;;2.03;;
29570;SDS011;16814;52.118;11.436;2023-01-28T06:00:12;4.93;;;2.13;;
29570;SDS011;16814;52.118;11.436;2023-01-28T06:02:41;6.40;;;2.17;;
29570;SDS011;16814;52.118;11.436;2023-01-28T06:05:08;3.97;;;1.92;;
29570;SDS011;16814;52.118;11.436;2023-01-28T06:07:35;2.97;;;1.77;;
29570;SDS011;16814;52.118;11.436;2023-01-28T06:10:02;5.03;;;2.00;;
29570;SDS011;16814;52.118;11.436;2023-01-28T06:12:29;6.57;;;1.85;;
29570;SDS011;16814;52.118;11.436;2023-01-28T06:14:57;5.13;;;1.65;;
29570;SDS011;16814;52.118;11.436;2023-01-28T06:17:25;7.80;;;2.45;;
29570;SDS011;16814;52.118;11.436;2023-01-28T06:19:52;7.88;;;3.55;;
29570;SDS011;16814;52.118;11.436;2023-01-28T06:22:18;4.70;;;1.77;;
29570;SDS011;16814;52.118;11.436;2023-01-28T06:24:45;9.18;;;1.83;;
29570;SDS011;16814;52.118;11.436;2023-01-28T06:27:12;8.98;;;2.00;;
29570;SDS011;16814;52.118;11.436;2023-01-28T06:29:41;3.83;;;1.50;;
29570;SDS011;16814;52.118;11.436;2023-01-28T06:32:07;3.97;;;1.73;;
29570;SDS011;16814;52.118;11.436;2023-01-28T06:34:33;6.88;;;1.77;;
29570;SDS011;16814;52.118;11.436;2023-01-28T06:37:00;4.82;;;1.45;;
29570;SDS011;16814;52.118;11.436;2023-01-28T06:39:29;6.95;;;2.05;;
29570;SDS011;16814;52.118;11.436;2023-01-28T06:41:58;3.08;;;1.38;;
29570;SDS011;16814;52.118;11.436;2023-01-28T06:44:26;8.93;;;2.85;;
29570;SDS011;16814;52.118;11.436;2023-01-28T06:46:53;10.63;;;4.32;;
29570;SDS011;16814;52.118;11.436;2023-01-28T06:49:20;10.38;;;3.80;;
29570;SDS011;16814;52.118;11.436;2023-01-28T06:51:47;4.25;;;1.88;;
29570;SDS011;16814;52.118;11.436;2023-01-28T06:54:13;3.63;;;1.38;;
29570;SDS011;16814;52.118;11.436;2023-01-28T06:56:40;4.05;;;1.65;;
29570;SDS011;16814;52.118;11.436;2023-01-28T06:59:08;4.05;;;1.50;;
29570;SDS011;16814;52.118;11.436;2023-01-28T07:01:35;3.30;;;1.30;;
29570;SDS011;16814;52.118;11.436;2023-01-28T07:04:02;4.72;;;3.40;;
29570;SDS011;16814;52.118;11.436;2023-01-28T07:06:28;4.40;;;2.08;;
29570;SDS011;16814;52.118;11.436;2023-01-28T07:08:53;5.47;;;2.17;;
29570;SDS011;16814;52.118;11.436;2023-01-28T07:11:21;8.07;;;1.63;;
29570;SDS011;16814;52.118;11.436;2023-01-28T07:13:47;5.07;;;1.35;;
29570;SDS011;16814;52.118;11.436;2023-01-28T07:16:14;7.68;;;1.50;;
29570;SDS011;16814;52.118;11.436;2023-01-28T07:18:41;5.75;;;1.67;;
29570;SDS011;16814;52.118;11.436;2023-01-28T07:21:08;4.60;;;1.30;;
29570;SDS011;16814;52.118;11.436;2023-01-28T07:23:33;3.00;;;1.20;;
29570;SDS011;16814;52.118;11.436;2023-01-28T07:26:00;4.00;;;1.60;;
29570;SDS011;16814;52.118;11.436;2023-01-28T07:28:29;5.57;;;1.30;;
29570;SDS011;16814;52.118;11.436;2023-01-28T07:30:56;2.57;;;1.33;;
29570;SDS011;16814;52.118;11.436;2023-01-28T07:33:22;2.03;;;1.10;;
29570;SDS011;16814;52.118;11.436;2023-01-28T07:35:49;4.17;;;1.43;;
29570;SDS011;16814;52.118;11.436;2023-01-28T07:38:17;3.20;;;1.48;;
29570;SDS011;16814;52.118;11.436;2023-01-28T07:40:43;8.13;;;1.65;;
29570;SDS011;16814;52.118;11.436;2023-01-28T07:43:10;2.53;;;1.20;;
29570;SDS011;16814;52.118;11.436;2023-01-28T07:45:37;6.00;;;1.60;;
29570;SDS011;16814;52.118;11.436;2023-01-28T07:48:03;2.83;;;1.23;;
29570;SDS011;16814;52.118;11.436;2023-01-28T07:50:33;3.50;;;1.45;;
29570;SDS011;16814;52.118;11.436;2023-01-28T07:53:05;6.90;;;1.35;;
29570;SDS011;16814;52.118;11.436;2023-01-28T07:55:37;6.07;;;1.10;;
29570;SDS011;16814;52.118;11.436;2023-01-28T07:58:06;5.20;;;1.30;;
29570;SDS011;16814;52.118;11.436;2023-01-28T08:00:45;4.37;;;1.30;;
29570;SDS011;16814;52.118;11.436;2023-01-28T08:03:12;3.07;;;0.90;;
29570;SDS011;16814;52.118;11.436;2023-01-28T08:05:50;3.83;;;1.85;;
29570;SDS011;16814;52.118;11.436;2023-01-28T08:08:23;6.72;;;2.70;;
29570;SDS011;16814;52.118;11.436;2023-01-28T08:10:52;10.35;;;4.63;;
29570;SDS011;16814;52.118;11.436;2023-01-28T08:13:20;4.97;;;1.40;;
29570;SDS011;16814;52.118;11.436;2023-01-28T08:15:48;4.90;;;1.57;;
29570;SDS011;16814;52.118;11.436;2023-01-28T08:18:15;5.07;;;1.65;;
29570;SDS011;16814;52.118;11.436;2023-01-28T08:20:43;5.40;;;1.90;;
29570;SDS011;16814;52.118;11.436;2023-01-28T08:23:15;2.40;;;1.40;;
29570;SDS011;16814;52.118;11.436;2023-01-28T08:25:44;4.85;;;1.73;;
29570;SDS011;16814;52.118;11.436;2023-01-28T08:28:13;5.03;;;1.67;;
29570;SDS011;16814;52.118;11.436;2023-01-28T08:30:40;4.97;;;2.25;;
29570;SDS011;16814;52.118;11.436;2023-01-28T08:33:12;3.63;;;1.43;;
29570;SDS011;16814;52.118;11.436;2023-01-28T08:35:42;12.67;;;8.37;;
29570;SDS011;16814;52.118;11.436;2023-01-28T08:38:10;8.43;;;3.83;;
29570;SDS011;16814;52.118;11.436;2023-01-28T08:40:38;5.10;;;3.40;;
29570;SDS011;16814;52.118;11.436;2023-01-28T08:43:04;5.55;;;3.47;;
29570;SDS011;16814;52.118;11.436;2023-01-28T08:45:30;7.70;;;2.85;;
29570;SDS011;16814;52.118;11.436;2023-01-28T08:47:59;19.70;;;3.85;;
29570;SDS011;16814;52.118;11.436;2023-01-28T08:50:32;13.13;;;5.07;;
29570;SDS011;16814;52.118;11.436;2023-01-28T08:53:02;6.00;;;1.77;;
29570;SDS011;16814;52.118;11.436;2023-01-28T08:55:36;3.75;;;1.73;;
29570;SDS011;16814;52.118;11.436;2023-01-28T08:58:02;4.07;;;1.70;;
29570;SDS011;16814;52.118;11.436;2023-01-28T09:00:31;14.98;;;1.98;;
29570;SDS011;16814;52.118;11.436;2023-01-28T09:02:58;9.30;;;1.98;;
29570;SDS011;16814;52.118;11.436;2023-01-28T09:05:28;3.15;;;1.90;;
29570;SDS011;16814;52.118;11.436;2023-01-28T09:07:56;12.43;;;2.38;;
29570;SDS011;16814;52.118;11.436;2023-01-28T09:10:27;7.90;;;2.03;;
29570;SDS011;16814;52.118;11.436;2023-01-28T09:12:54;2.72;;;1.50;;
29570;SDS011;16814;52.118;11.436;2023-01-28T09:15:21;7.47;;;2.30;;
29570;SDS011;16814;52.118;11.436;2023-01-28T09:17:46;4.00;;;2.07;;
29570;SDS011;16814;52.118;11.436;2023-01-28T09:20:12;3.85;;;2.33;;
29570;SDS011;16814;52.118;11.436;2023-01-28T09:22:37;6.23;;;2.57;;
29570;SDS011;16814;52.118;11.436;2023-01-28T09:25:04;6.15;;;2.80;;
29570;SDS011;16814;52.118;11.436;2023-01-28T09:27:32;5.28;;;1.80;;
29570;SDS011;16814;52.118;11.436;2023-01-28T09:29:59;5.88;;;1.60;;
29570;SDS011;16814;52.118;11.436;2023-01-28T09:32:24;5.70;;;1.63;;
29570;SDS011;16814;52.118;11.436;2023-01-28T09:34:50;9.17;;;2.40;;
29570;SDS011;16814;52.118;11.436;2023-01-28T09:37:15;8.18;;;1.90;;
29570;SDS011;16814;52.118;11.436;2023-01-28T09:39:42;5.15;;;2.10;;
29570;SDS011;16814;52.118;11.436;2023-01-28T09:42:30;3.80;;;1.67;;
29570;SDS011;16814;52.118;11.436;2023-01-28T09:45:47;4.45;;;1.90;;
29570;SDS011;16814;52.118;11.436;2023-01-28T09:48:13;3.40;;;1.58;;
29570;SDS011;16814;52.118;11.436;2023-01-28T09:50:43;4.18;;;1.65;;
29570;SDS011;16814;52.118;11.436;2023-01-28T09:55:45;28.42;;;12.65;;
29570;SDS011;16814;52.118;11.436;2023-01-28T09:58:18;18.20;;;8.55;;
29570;SDS011;16814;52.118;11.436;2023-01-28T10:00:52;10.07;;;3.72;;
29570;SDS011;16814;52.118;11.436;2023-01-28T10:03:39;8.80;;;2.88;;
29570;SDS011;16814;52.118;11.436;2023-01-28T10:06:17;6.95;;;2.33;;
29570;SDS011;16814;52.118;11.436;2023-01-28T10:17:08;4.93;;;2.38;;
29570;SDS011;16814;52.118;11.436;2023-01-28T10:22:43;441.45;;;65.70;;
29570;SDS011;16814;52.118;11.436;2023-01-28T10:25:20;45.25;;;7.22;;
29570;SDS011;16814;52.118;11.436;2023-01-28T10:27:48;13.67;;;2.80;;
29570;SDS011;16814;52.118;11.436;2023-01-28T10:30:17;6.82;;;2.20;;
29570;SDS011;16814;52.118;11.436;2023-01-28T10:32:55;7.78;;;2.00;;
29570;SDS011;16814;52.118;11.436;2023-01-28T10:35:27;10.07;;;2.13;;
29570;SDS011;16814;52.118;11.436;2023-01-28T10:37:59;5.68;;;2.47;;
29570;SDS011;16814;52.118;11.436;2023-01-28T10:40:30;3.80;;;2.20;;
29570;SDS011;16814;52.118;11.436;2023-01-28T10:42:56;5.20;;;2.25;;
29570;SDS011;16814;52.118;11.436;2023-01-28T10:45:22;4.70;;;1.80;;
29570;SDS011;16814;52.118;11.436;2023-01-28T10:47:57;3.47;;;1.60;;
29570;SDS011;16814;52.118;11.436;2023-01-28T10:50:32;11.00;;;4.97;;
29570;SDS011;16814;52.118;11.436;2023-01-28T10:53:01;9.30;;;4.55;;
29570;SDS011;16814;52.118;11.436;2023-01-28T10:55:33;5.93;;;2.40;;
29570;SDS011;16814;52.118;11.436;2023-01-28T10:58:21;5.57;;;1.92;;
29570;SDS011;16814;52.118;11.436;2023-01-28T11:01:02;5.45;;;2.05;;
29570;SDS011;16814;52.118;11.436;2023-01-28T11:03:31;5.27;;;2.40;;
29570;SDS011;16814;52.118;11.436;2023-01-28T11:06:00;7.13;;;3.10;;
29570;SDS011;16814;52.118;11.436;2023-01-28T11:08:28;4.32;;;2.47;;
29570;SDS011;16814;52.118;11.436;2023-01-28T11:11:12;5.40;;;2.80;;
29570;SDS011;16814;52.118;11.436;2023-01-28T11:13:47;6.32;;;2.55;;
29570;SDS011;16814;52.118;11.436;2023-01-28T11:16:16;6.55;;;2.10;;
29570;SDS011;16814;52.118;11.436;2023-01-28T11:19:09;4.30;;;2.10;;
29570;SDS011;16814;52.118;11.436;2023-01-28T11:21:36;5.43;;;2.00;;
29570;SDS011;16814;52.118;11.436;2023-01-28T11:24:04;3.97;;;2.00;;
29570;SDS011;16814;52.118;11.436;2023-01-28T11:26:47;6.45;;;2.33;;
29570;SDS011;16814;52.118;11.436;2023-01-28T11:29:20;5.50;;;1.92;;
29570;SDS011;16814;52.118;11.436;2023-01-28T11:31:59;6.60;;;1.50;;
29570;SDS011;16814;52.118;11.436;2023-01-28T11:34:33;5.33;;;1.80;;
29570;SDS011;16814;52.118;11.436;2023-01-28T11:37:14;5.70;;;2.10;;
29570;SDS011;16814;52.118;11.436;2023-01-28T11:39:40;3.35;;;1.35;;
29570;SDS011;16814;52.118;11.436;2023-01-28T11:42:12;5.70;;;2.10;;
29570;SDS011;16814;52.118;11.436;2023-01-28T11:44:43;6.07;;;1.70;;
29570;SDS011;16814;52.118;11.436;2023-01-28T11:53:22;9.30;;;3.17;;
29570;SDS011;16814;52.118;11.436;2023-01-28T11:56:23;4.35;;;2.00;;
29570;SDS011;16814;52.118;11.436;2023-01-28T11:59:27;5.75;;;2.08;;
29570;SDS011;16814;52.118;11.436;2023-01-28T12:08:24;3.47;;;1.10;;
29570;SDS011;16814;52.118;11.436;2023-01-28T12:14:31;5.22;;;1.25;;
29570;SDS011;16814;52.118;11.436;2023-01-28T12:17:23;5.25;;;1.50;;
29570;SDS011;16814;52.118;11.436;2023-01-28T12:22:25;4.15;;;1.73;;
29570;SDS011;16814;52.118;11.436;2023-01-28T12:37:24;4.10;;;1.50;;
29570;SDS011;16814;52.118;11.436;2023-01-28T12:52:00;5.53;;;1.95;;
29570;SDS011;16814;52.118;11.436;2023-01-28T12:57:31;4.88;;;1.70;;
29570;SDS011;16814;52.118;11.436;2023-01-28T13:06:10;4.82;;;1.50;;
29570;SDS011;16814;52.118;11.436;2023-01-28T13:08:41;5.10;;;1.80;;
29570;SDS011;16814;52.118;11.436;2023-01-28T13:11:12;5.85;;;1.88;;
29570;SDS011;16814;52.118;11.436;2023-01-28T13:13:45;5.03;;;1.70;;
29570;SDS011;16814;52.118;11.436;2023-01-28T13:16:12;5.32;;;2.10;;
29570;SDS011;16814;52.118;11.436;2023-01-28T13:21:09;5.32;;;1.60;;
29570;SDS011;16814;52.118;11.436;2023-01-28T13:24:03;6.53;;;1.60;;
29570;SDS011;16814;52.118;11.436;2023-01-28T13:26:43;2.03;;;1.50;;
29570;SDS011;16814;52.118;11.436;2023-01-28T13:29:29;6.00;;;1.80;;
29570;SDS011;16814;52.118;11.436;2023-01-28T13:31:57;2.88;;;1.60;;
29570;SDS011;16814;52.118;11.436;2023-01-28T13:34:28;4.40;;;1.90;;
29570;SDS011;16814;52.118;11.436;2023-01-28T13:37:23;3.38;;;1.75;;
29570;SDS011;16814;52.118;11.436;2023-01-28T13:40:05;6.70;;;1.90;;
29570;SDS011;16814;52.118;11.436;2023-01-28T13:42:31;3.05;;;1.80;;
29570;SDS011;16814;52.118;11.436;2023-01-28T13:47:45;3.75;;;2.00;;
29570;SDS011;16814;52.118;11.436;2023-01-28T13:50:17;6.17;;;2.50;;
29570;SDS011;16814;52.118;11.436;2023-01-28T13:52:48;5.72;;;2.00;;
29570;SDS011;16814;52.118;11.436;2023-01-28T13:55:36;4.82;;;2.25;;
29570;SDS011;16814;52.118;11.436;2023-01-28T13:58:15;8.82;;;2.97;;
29570;SDS011;16814;52.118;11.436;2023-01-28T14:01:19;5.95;;;2.65;;
29570;SDS011;16814;52.118;11.436;2023-01-28T14:10:07;4.60;;;2.40;;
29570;SDS011;16814;52.118;11.436;2023-01-28T14:13:09;14.13;;;7.35;;
29570;SDS011;16814;52.118;11.436;2023-01-28T14:18:25;10.25;;;5.50;;
29570;SDS011;16814;52.118;11.436;2023-01-28T14:20:55;11.35;;;5.35;;
29570;SDS011;16814;52.118;11.436;2023-01-28T14:23:25;46.55;;;22.63;;
29570;SDS011;16814;52.118;11.436;2023-01-28T14:25:57;25.23;;;10.88;;
29570;SDS011;16814;52.118;11.436;2023-01-28T14:33:49;16.25;;;7.63;;
29570;SDS011;16814;52.118;11.436;2023-01-28T14:36:15;16.40;;;7.75;;
29570;SDS011;16814;52.118;11.436;2023-01-28T14:38:41;15.23;;;9.20;;
29570;SDS011;16814;52.118;11.436;2023-01-28T14:41:09;11.37;;;5.40;;
29570;SDS011;16814;52.118;11.436;2023-01-28T14:43:45;12.77;;;6.25;;
29570;SDS011;16814;52.118;11.436;2023-01-28T14:51:39;10.93;;;4.77;;
29570;SDS011;16814;52.118;11.436;2023-01-28T14:54:25;20.38;;;8.98;;
29570;SDS011;16814;52.118;11.436;2023-01-28T14:57:27;8.35;;;4.00;;
29570;SDS011;16814;52.118;11.436;2023-01-28T15:00:14;7.50;;;3.77;;
29570;SDS011;16814;52.118;11.436;2023-01-28T15:02:46;7.32;;;3.97;;
29570;SDS011;16814;52.118;11.436;2023-01-28T15:05:16;5.32;;;3.10;;
29570;SDS011;16814;52.118;11.436;2023-01-28T15:07:47;7.70;;;3.22;;
29570;SDS011;16814;52.118;11.436;2023-01-28T15:10:15;6.20;;;3.10;;
29570;SDS011;16814;52.118;11.436;2023-01-28T15:12:43;5.18;;;3.10;;
29570;SDS011;16814;52.118;11.436;2023-01-28T15:15:19;7.35;;;4.70;;
29570;SDS011;16814;52.118;11.436;2023-01-28T15:18:01;5.55;;;3.10;;
29570;SDS011;16814;52.118;11.436;2023-01-28T15:20:32;6.32;;;2.70;;
29570;SDS011;16814;52.118;11.436;2023-01-28T15:23:00;3.92;;;2.47;;
29570;SDS011;16814;52.118;11.436;2023-01-28T15:25:28;4.47;;;2.60;;
29570;SDS011;16814;52.118;11.436;2023-01-28T15:27:54;5.18;;;2.65;;
29570;SDS011;16814;52.118;11.436;2023-01-28T15:30:26;5.35;;;2.85;;
29570;SDS011;16814;52.118;11.436;2023-01-28T15:33:03;549.05;;;55.45;;
29570;SDS011;16814;52.118;11.436;2023-01-28T15:35:44;85.75;;;12.48;;
29570;SDS011;16814;52.118;11.436;2023-01-28T15:38:11;5.07;;;2.60;;
29570;SDS011;16814;52.118;11.436;2023-01-28T15:40:43;4.15;;;2.25;;
29570;SDS011;16814;52.118;11.436;2023-01-28T15:43:21;7.20;;;2.70;;
29570;SDS011;16814;52.118;11.436;2023-01-28T15:45:56;6.95;;;2.65;;
29570;SDS011;16814;52.118;11.436;2023-01-28T15:48:32;4.15;;;2.28;;
29570;SDS011;16814;52.118;11.436;2023-01-28T15:51:01;7.38;;;2.88;;
29570;SDS011;16814;52.118;11.436;2023-01-28T15:53:44;35.83;;;25.63;;
29570;SDS011;16814;52.118;11.436;2023-01-28T15:56:14;4.47;;;2.88;;
29570;SDS011;16814;52.118;11.436;2023-01-28T15:58:49;4.95;;;2.47;;
29570;SDS011;16814;52.118;11.436;2023-01-28T16:01:17;5.07;;;2.40;;
29570;SDS011;16814;52.118;11.436;2023-01-28T16:03:49;6.65;;;2.50;;
29570;SDS011;16814;52.118;11.436;2023-01-28T16:06:36;3.47;;;2.08;;
29570;SDS011;16814;52.118;11.436;2023-01-28T16:09:28;4.00;;;2.20;;
29570;SDS011;16814;52.118;11.436;2023-01-28T16:12:06;3.97;;;2.50;;
29570;SDS011;16814;52.118;11.436;2023-01-28T16:14:36;4.45;;;3.00;;
29570;SDS011;16814;52.118;11.436;2023-01-28T16:17:16;6.60;;;3.10;;
29570;SDS011;16814;52.118;11.436;2023-01-28T16:19:48;4.60;;;2.80;;
29570;SDS011;16814;52.118;11.436;2023-01-28T16:22:37;29.70;;;13.25;;
29570;SDS011;16814;52.118;11.436;2023-01-28T16:27:46;538.08;;;172.25;;
29570;SDS011;16814;52.118;11.436;2023-01-28T16:30:12;542.60;;;169.13;;
29570;SDS011;16814;52.118;11.436;2023-01-28T16:32:47;92.65;;;28.75;;
29570;SDS011;16814;52.118;11.436;2023-01-28T16:35:18;230.38;;;58.33;;
29570;SDS011;16814;52.118;11.436;2023-01-28T16:37:53;649.60;;;192.95;;
29570;SDS011;16814;52.118;11.436;2023-01-28T16:40:21;1044.13;;;345.90;;
29570;SDS011;16814;52.118;11.436;2023-01-28T16:42:48;1038.45;;;345.27;;
29570;SDS011;16814;52.118;11.436;2023-01-28T16:45:17;730.47;;;225.23;;
29570;SDS011;16814;52.118;11.436;2023-01-28T16:47:47;749.28;;;219.65;;
29570;SDS011;16814;52.118;11.436;2023-01-28T16:50:15;563.97;;;154.30;;
29570;SDS011;16814;52.118;11.436;2023-01-28T16:52:43;662.92;;;207.90;;
29570;SDS011;16814;52.118;11.436;2023-01-28T16:55:13;807.03;;;273.40;;
29570;SDS011;16814;52.118;11.436;2023-01-28T16:57:43;565.72;;;177.95;;